sensor_id;sensor_type;location;lat;lon;timestamp;P1;durP1;ratioP1;P2;durP2;ratioP2
56581;SDS011;42463;52.214;21.238;2023-07-20T00:00:04;4.20;;;2.90;;
56581;SDS011;42463;52.214;21.238;2023-07-20T00:02:36;5.20;;;2.80;;
56581;SDS011;42463;52.214;21.238;2023-07-20T00:04:41;3.60;;;2.60;;
56581;SDS011;42463;52.214;21.238;2023-07-20T00:06:47;3.70;;;2.60;;
56581;SDS011;42463;52.214;21.238;2023-07-20T00:08:52;4.20;;;2.70;;
56581;SDS011;42463;52.214;21.238;2023-07-20T00:10:58;5.40;;;2.90;;
56581;SDS011;42463;52.214;21.238;2023-07-20T00:13:03;7.00;;;2.70;;
56581;SDS011;42463;52.214;21.238;2023-07-20T00:15:09;4.20;;;2.60;;
56581;SDS011;42463;52.214;21.238;2023-07-20T00:17:15;2.80;;;2.40;;
56581;SDS011;42463;52.214;21.238;2023-07-20T00:19:21;13.70;;;3.50;;
56581;SDS011;42463;52.214;21.238;2023-07-20T00:21:27;3.70;;;2.90;;
56581;SDS011;42463;52.214;21.238;2023-07-20T00:23:33;5.10;;;2.70;;
56581;SDS011;42463;52.214;21.238;2023-07-20T00:25:39;3.20;;;2.50;;
56581;SDS011;42463;52.214;21.238;2023-07-20T00:27:44;4.10;;;2.30;;
56581;SDS011;42463;52.214;21.238;2023-07-20T00:29:50;3.00;;;2.60;;
56581;SDS011;42463;52.214;21.238;2023-07-20T00:31:56;4.20;;;2.50;;
56581;SDS011;42463;52.214;21.238;2023-07-20T00:34:02;4.10;;;2.60;;
56581;SDS011;42463;52.214;21.238;2023-07-20T00:36:08;4.30;;;3.10;;
56581;SDS011;42463;52.214;21.238;2023-07-20T00:38:13;4.50;;;3.00;;
56581;SDS011;42463;52.214;21.238;2023-07-20T00:40:19;3.20;;;2.70;;
56581;SDS011;42463;52.214;21.238;2023-07-20T00:42:24;3.70;;;2.40;;
56581;SDS011;42463;52.214;21.238;2023-07-20T00:44:30;3.80;;;2.50;;
56581;SDS011;42463;52.214;21.238;2023-07-20T00:46:36;4.30;;;3.30;;
56581;SDS011;42463;52.214;21.238;2023-07-20T00:48:42;4.70;;;3.70;;
56581;SDS011;42463;52.214;21.238;2023-07-20T00:50:48;4.20;;;2.90;;
56581;SDS011;42463;52.214;21.238;2023-07-20T00:52:54;4.20;;;3.10;;
56581;SDS011;42463;52.214;21.238;2023-07-20T00:55:01;4.20;;;2.60;;
56581;SDS011;42463;52.214;21.238;2023-07-20T00:57:07;6.00;;;2.80;;
56581;SDS011;42463;52.214;21.238;2023-07-20T00:59:14;3.90;;;2.60;;
56581;SDS011;42463;52.214;21.238;2023-07-20T01:03:45;4.40;;;3.00;;
56581;SDS011;42463;52.214;21.238;2023-07-20T01:05:54;5.10;;;3.10;;
56581;SDS011;42463;52.214;21.238;2023-07-20T01:08:06;4.70;;;2.80;;
56581;SDS011;42463;52.214;21.238;2023-07-20T01:10:20;4.50;;;3.20;;
56581;SDS011;42463;52.214;21.238;2023-07-20T01:12:32;5.10;;;2.80;;
56581;SDS011;42463;52.214;21.238;2023-07-20T01:14:44;3.90;;;2.90;;
56581;SDS011;42463;52.214;21.238;2023-07-20T01:16:50;3.90;;;2.60;;
56581;SDS011;42463;52.214;21.238;2023-07-20T01:18:55;7.00;;;2.80;;
56581;SDS011;42463;52.214;21.238;2023-07-20T01:21:03;3.00;;;2.70;;
56581;SDS011;42463;52.214;21.238;2023-07-20T01:23:17;5.00;;;2.60;;
56581;SDS011;42463;52.214;21.238;2023-07-20T01:25:49;5.20;;;2.60;;
56581;SDS011;42463;52.214;21.238;2023-07-20T01:28:12;3.50;;;2.80;;
56581;SDS011;42463;52.214;21.238;2023-07-20T01:30:45;6.00;;;2.90;;
56581;SDS011;42463;52.214;21.238;2023-07-20T01:32:59;3.30;;;2.70;;
56581;SDS011;42463;52.214;21.238;2023-07-20T01:35:06;4.60;;;3.10;;
56581;SDS011;42463;52.214;21.238;2023-07-20T01:37:17;3.60;;;2.60;;
56581;SDS011;42463;52.214;21.238;2023-07-20T01:39:27;3.30;;;2.70;;
56581;SDS011;42463;52.214;21.238;2023-07-20T01:41:34;3.70;;;2.90;;
56581;SDS011;42463;52.214;21.238;2023-07-20T01:43:40;3.60;;;2.80;;
56581;SDS011;42463;52.214;21.238;2023-07-20T01:45:46;4.90;;;3.00;;
56581;SDS011;42463;52.214;21.238;2023-07-20T01:47:51;5.00;;;3.00;;
56581;SDS011;42463;52.214;21.238;2023-07-20T01:49:56;4.90;;;2.90;;
56581;SDS011;42463;52.214;21.238;2023-07-20T01:52:03;4.10;;;3.70;;
56581;SDS011;42463;52.214;21.238;2023-07-20T01:54:09;4.50;;;2.70;;
56581;SDS011;42463;52.214;21.238;2023-07-20T01:56:15;5.80;;;2.80;;
56581;SDS011;42463;52.214;21.238;2023-07-20T01:58:20;3.50;;;2.80;;
56581;SDS011;42463;52.214;21.238;2023-07-20T02:00:26;5.30;;;2.90;;
56581;SDS011;42463;52.214;21.238;2023-07-20T02:02:32;5.60;;;3.00;;
56581;SDS011;42463;52.214;21.238;2023-07-20T02:04:38;4.90;;;2.80;;
56581;SDS011;42463;52.214;21.238;2023-07-20T02:06:43;4.30;;;2.60;;
56581;SDS011;42463;52.214;21.238;2023-07-20T02:08:49;5.90;;;2.90;;
56581;SDS011;42463;52.214;21.238;2023-07-20T02:10:54;6.20;;;2.90;;
56581;SDS011;42463;52.214;21.238;2023-07-20T02:13:00;4.80;;;3.40;;
56581;SDS011;42463;52.214;21.238;2023-07-20T02:15:06;5.80;;;3.10;;
56581;SDS011;42463;52.214;21.238;2023-07-20T02:17:13;4.50;;;3.70;;
56581;SDS011;42463;52.214;21.238;2023-07-20T02:19:18;4.20;;;3.10;;
56581;SDS011;42463;52.214;21.238;2023-07-20T02:21:24;3.60;;;3.20;;
56581;SDS011;42463;52.214;21.238;2023-07-20T02:23:29;4.70;;;3.20;;
56581;SDS011;42463;52.214;21.238;2023-07-20T02:25:35;5.20;;;3.40;;
56581;SDS011;42463;52.214;21.238;2023-07-20T02:27:41;6.10;;;3.30;;
56581;SDS011;42463;52.214;21.238;2023-07-20T02:29:46;4.10;;;3.50;;
56581;SDS011;42463;52.214;21.238;2023-07-20T02:31:53;4.80;;;3.40;;
56581;SDS011;42463;52.214;21.238;2023-07-20T02:33:58;5.10;;;3.20;;
56581;SDS011;42463;52.214;21.238;2023-07-20T02:36:04;5.00;;;3.60;;
56581;SDS011;42463;52.214;21.238;2023-07-20T02:38:10;4.60;;;3.60;;
56581;SDS011;42463;52.214;21.238;2023-07-20T02:40:15;4.50;;;3.20;;
56581;SDS011;42463;52.214;21.238;2023-07-20T02:42:21;5.30;;;3.60;;
56581;SDS011;42463;52.214;21.238;2023-07-20T02:44:28;6.20;;;3.70;;
56581;SDS011;42463;52.214;21.238;2023-07-20T02:46:36;4.90;;;3.10;;
56581;SDS011;42463;52.214;21.238;2023-07-20T02:48:41;4.00;;;3.20;;
56581;SDS011;42463;52.214;21.238;2023-07-20T02:50:47;4.50;;;3.10;;
56581;SDS011;42463;52.214;21.238;2023-07-20T02:52:52;8.00;;;6.20;;
56581;SDS011;42463;52.214;21.238;2023-07-20T02:54:58;6.60;;;4.40;;
56581;SDS011;42463;52.214;21.238;2023-07-20T02:57:04;4.80;;;3.70;;
56581;SDS011;42463;52.214;21.238;2023-07-20T02:59:10;3.90;;;3.50;;
56581;SDS011;42463;52.214;21.238;2023-07-20T03:01:16;6.70;;;4.00;;
56581;SDS011;42463;52.214;21.238;2023-07-20T03:03:21;6.40;;;3.70;;
56581;SDS011;42463;52.214;21.238;2023-07-20T03:05:27;6.30;;;3.50;;
56581;SDS011;42463;52.214;21.238;2023-07-20T03:07:32;7.10;;;3.60;;
56581;SDS011;42463;52.214;21.238;2023-07-20T03:09:38;5.80;;;3.80;;
56581;SDS011;42463;52.214;21.238;2023-07-20T03:11:43;6.20;;;3.80;;
56581;SDS011;42463;52.214;21.238;2023-07-20T03:13:49;6.00;;;3.80;;
56581;SDS011;42463;52.214;21.238;2023-07-20T03:15:54;6.00;;;3.80;;
56581;SDS011;42463;52.214;21.238;2023-07-20T03:18:00;6.10;;;4.10;;
56581;SDS011;42463;52.214;21.238;2023-07-20T03:20:08;5.40;;;3.50;;
56581;SDS011;42463;52.214;21.238;2023-07-20T03:22:15;4.50;;;3.60;;
56581;SDS011;42463;52.214;21.238;2023-07-20T03:24:21;5.90;;;3.70;;
56581;SDS011;42463;52.214;21.238;2023-07-20T03:26:27;4.40;;;3.70;;
56581;SDS011;42463;52.214;21.238;2023-07-20T03:28:33;8.10;;;3.70;;
56581;SDS011;42463;52.214;21.238;2023-07-20T03:30:38;5.80;;;3.60;;
56581;SDS011;42463;52.214;21.238;2023-07-20T03:32:44;6.30;;;3.40;;
56581;SDS011;42463;52.214;21.238;2023-07-20T03:34:49;6.80;;;3.70;;
56581;SDS011;42463;52.214;21.238;2023-07-20T03:36:55;5.60;;;4.00;;
56581;SDS011;42463;52.214;21.238;2023-07-20T03:39:04;5.70;;;3.60;;
56581;SDS011;42463;52.214;21.238;2023-07-20T03:41:10;5.00;;;3.30;;
56581;SDS011;42463;52.214;21.238;2023-07-20T03:43:15;5.60;;;3.80;;
56581;SDS011;42463;52.214;21.238;2023-07-20T03:45:21;4.10;;;3.70;;
56581;SDS011;42463;52.214;21.238;2023-07-20T03:47:27;5.00;;;3.60;;
56581;SDS011;42463;52.214;21.238;2023-07-20T03:49:34;4.20;;;3.60;;
56581;SDS011;42463;52.214;21.238;2023-07-20T03:51:40;4.90;;;3.60;;
56581;SDS011;42463;52.214;21.238;2023-07-20T03:53:45;5.50;;;4.00;;
56581;SDS011;42463;52.214;21.238;2023-07-20T03:55:51;5.10;;;3.70;;
56581;SDS011;42463;52.214;21.238;2023-07-20T03:57:58;6.40;;;3.60;;
56581;SDS011;42463;52.214;21.238;2023-07-20T04:00:04;5.50;;;3.60;;
56581;SDS011;42463;52.214;21.238;2023-07-20T04:02:15;6.50;;;3.80;;
56581;SDS011;42463;52.214;21.238;2023-07-20T04:04:21;6.00;;;3.90;;
56581;SDS011;42463;52.214;21.238;2023-07-20T04:06:27;5.70;;;3.50;;
56581;SDS011;42463;52.214;21.238;2023-07-20T04:08:32;5.60;;;3.90;;
56581;SDS011;42463;52.214;21.238;2023-07-20T04:10:38;5.30;;;3.70;;
56581;SDS011;42463;52.214;21.238;2023-07-20T04:12:47;4.70;;;3.60;;
56581;SDS011;42463;52.214;21.238;2023-07-20T04:14:52;5.70;;;3.90;;
56581;SDS011;42463;52.214;21.238;2023-07-20T04:16:58;6.90;;;4.00;;
56581;SDS011;42463;52.214;21.238;2023-07-20T04:19:03;5.70;;;3.80;;
56581;SDS011;42463;52.214;21.238;2023-07-20T04:21:09;8.00;;;4.10;;
56581;SDS011;42463;52.214;21.238;2023-07-20T04:23:14;6.30;;;4.30;;
56581;SDS011;42463;52.214;21.238;2023-07-20T04:25:20;6.10;;;4.10;;
56581;SDS011;42463;52.214;21.238;2023-07-20T04:27:26;5.80;;;4.30;;
56581;SDS011;42463;52.214;21.238;2023-07-20T04:29:31;6.00;;;4.40;;
56581;SDS011;42463;52.214;21.238;2023-07-20T04:31:37;7.30;;;4.20;;
56581;SDS011;42463;52.214;21.238;2023-07-20T04:33:43;6.20;;;4.00;;
56581;SDS011;42463;52.214;21.238;2023-07-20T04:35:49;5.60;;;4.20;;
56581;SDS011;42463;52.214;21.238;2023-07-20T04:38:05;6.30;;;4.20;;
56581;SDS011;42463;52.214;21.238;2023-07-20T04:40:12;5.50;;;3.90;;
56581;SDS011;42463;52.214;21.238;2023-07-20T04:42:19;6.00;;;4.50;;
56581;SDS011;42463;52.214;21.238;2023-07-20T04:44:25;5.60;;;4.60;;
56581;SDS011;42463;52.214;21.238;2023-07-20T04:46:30;5.30;;;4.40;;
56581;SDS011;42463;52.214;21.238;2023-07-20T04:48:38;5.30;;;4.30;;
56581;SDS011;42463;52.214;21.238;2023-07-20T04:50:44;5.70;;;4.60;;
56581;SDS011;42463;52.214;21.238;2023-07-20T04:52:50;6.00;;;4.40;;
56581;SDS011;42463;52.214;21.238;2023-07-20T04:54:57;5.40;;;4.80;;
56581;SDS011;42463;52.214;21.238;2023-07-20T04:57:05;5.90;;;4.90;;
56581;SDS011;42463;52.214;21.238;2023-07-20T04:59:19;6.00;;;4.40;;
56581;SDS011;42463;52.214;21.238;2023-07-20T05:01:25;6.70;;;4.60;;
56581;SDS011;42463;52.214;21.238;2023-07-20T05:03:30;5.90;;;4.50;;
56581;SDS011;42463;52.214;21.238;2023-07-20T05:05:36;6.90;;;4.50;;
56581;SDS011;42463;52.214;21.238;2023-07-20T05:07:42;5.90;;;4.70;;
56581;SDS011;42463;52.214;21.238;2023-07-20T05:09:47;7.00;;;4.90;;
56581;SDS011;42463;52.214;21.238;2023-07-20T05:11:53;7.10;;;4.70;;
56581;SDS011;42463;52.214;21.238;2023-07-20T05:13:59;4.60;;;4.10;;
56581;SDS011;42463;52.214;21.238;2023-07-20T05:16:06;4.90;;;4.40;;
56581;SDS011;42463;52.214;21.238;2023-07-20T05:18:11;5.60;;;4.90;;
56581;SDS011;42463;52.214;21.238;2023-07-20T05:20:22;4.70;;;4.20;;
56581;SDS011;42463;52.214;21.238;2023-07-20T05:22:28;7.20;;;4.50;;
56581;SDS011;42463;52.214;21.238;2023-07-20T05:24:33;6.30;;;4.30;;
56581;SDS011;42463;52.214;21.238;2023-07-20T05:26:39;6.40;;;4.80;;
56581;SDS011;42463;52.214;21.238;2023-07-20T05:28:44;7.50;;;4.50;;
56581;SDS011;42463;52.214;21.238;2023-07-20T05:30:50;6.30;;;4.30;;
56581;SDS011;42463;52.214;21.238;2023-07-20T05:32:56;8.90;;;4.40;;
56581;SDS011;42463;52.214;21.238;2023-07-20T05:35:02;6.70;;;4.20;;
56581;SDS011;42463;52.214;21.238;2023-07-20T05:37:08;6.80;;;4.40;;
56581;SDS011;42463;52.214;21.238;2023-07-20T05:39:13;5.50;;;4.20;;
56581;SDS011;42463;52.214;21.238;2023-07-20T05:41:20;5.20;;;4.40;;
56581;SDS011;42463;52.214;21.238;2023-07-20T05:43:25;8.80;;;4.60;;
56581;SDS011;42463;52.214;21.238;2023-07-20T05:45:31;6.10;;;4.70;;
56581;SDS011;42463;52.214;21.238;2023-07-20T05:47:36;8.30;;;4.50;;
56581;SDS011;42463;52.214;21.238;2023-07-20T05:49:42;6.90;;;5.00;;
56581;SDS011;42463;52.214;21.238;2023-07-20T05:51:47;7.50;;;4.90;;
56581;SDS011;42463;52.214;21.238;2023-07-20T05:53:53;6.90;;;4.60;;
56581;SDS011;42463;52.214;21.238;2023-07-20T05:55:59;7.20;;;4.70;;
56581;SDS011;42463;52.214;21.238;2023-07-20T05:58:05;6.60;;;4.60;;
56581;SDS011;42463;52.214;21.238;2023-07-20T06:00:12;6.50;;;4.80;;
56581;SDS011;42463;52.214;21.238;2023-07-20T06:02:18;7.40;;;5.00;;
56581;SDS011;42463;52.214;21.238;2023-07-20T06:04:24;7.80;;;5.20;;
56581;SDS011;42463;52.214;21.238;2023-07-20T06:06:30;7.50;;;4.80;;
56581;SDS011;42463;52.214;21.238;2023-07-20T06:08:36;7.50;;;5.00;;
56581;SDS011;42463;52.214;21.238;2023-07-20T06:10:41;7.20;;;5.10;;
56581;SDS011;42463;52.214;21.238;2023-07-20T06:12:47;8.80;;;5.30;;
56581;SDS011;42463;52.214;21.238;2023-07-20T06:14:52;6.20;;;4.90;;
56581;SDS011;42463;52.214;21.238;2023-07-20T06:16:58;8.10;;;5.00;;
56581;SDS011;42463;52.214;21.238;2023-07-20T06:19:03;7.50;;;5.30;;
56581;SDS011;42463;52.214;21.238;2023-07-20T06:21:09;6.40;;;5.00;;
56581;SDS011;42463;52.214;21.238;2023-07-20T06:23:15;8.70;;;5.00;;
56581;SDS011;42463;52.214;21.238;2023-07-20T06:25:20;7.10;;;5.10;;
56581;SDS011;42463;52.214;21.238;2023-07-20T06:27:25;7.70;;;5.40;;
56581;SDS011;42463;52.214;21.238;2023-07-20T06:29:31;6.50;;;5.40;;
56581;SDS011;42463;52.214;21.238;2023-07-20T06:31:37;7.10;;;5.50;;
56581;SDS011;42463;52.214;21.238;2023-07-20T06:33:42;8.30;;;5.70;;
56581;SDS011;42463;52.214;21.238;2023-07-20T06:35:48;7.80;;;5.50;;
56581;SDS011;42463;52.214;21.238;2023-07-20T06:37:55;7.20;;;5.50;;
56581;SDS011;42463;52.214;21.238;2023-07-20T06:40:03;7.40;;;5.60;;
56581;SDS011;42463;52.214;21.238;2023-07-20T06:42:11;6.80;;;6.00;;
56581;SDS011;42463;52.214;21.238;2023-07-20T06:44:17;10.80;;;6.50;;
56581;SDS011;42463;52.214;21.238;2023-07-20T06:46:22;9.40;;;7.40;;
56581;SDS011;42463;52.214;21.238;2023-07-20T06:48:28;7.80;;;6.10;;
56581;SDS011;42463;52.214;21.238;2023-07-20T06:50:33;9.30;;;6.50;;
56581;SDS011;42463;52.214;21.238;2023-07-20T06:52:39;7.10;;;5.60;;
56581;SDS011;42463;52.214;21.238;2023-07-20T06:54:45;7.70;;;5.90;;
56581;SDS011;42463;52.214;21.238;2023-07-20T06:56:50;9.50;;;6.40;;
56581;SDS011;42463;52.214;21.238;2023-07-20T06:58:56;7.60;;;6.40;;
56581;SDS011;42463;52.214;21.238;2023-07-20T07:01:05;7.70;;;6.40;;
56581;SDS011;42463;52.214;21.238;2023-07-20T07:03:11;9.00;;;6.40;;
56581;SDS011;42463;52.214;21.238;2023-07-20T07:05:17;8.00;;;6.50;;
56581;SDS011;42463;52.214;21.238;2023-07-20T07:07:24;8.70;;;5.80;;
56581;SDS011;42463;52.214;21.238;2023-07-20T07:09:29;9.40;;;6.20;;
56581;SDS011;42463;52.214;21.238;2023-07-20T07:11:35;9.10;;;6.50;;
56581;SDS011;42463;52.214;21.238;2023-07-20T07:13:41;9.80;;;6.40;;
56581;SDS011;42463;52.214;21.238;2023-07-20T07:15:49;9.50;;;6.60;;
56581;SDS011;42463;52.214;21.238;2023-07-20T07:17:55;9.30;;;6.30;;
56581;SDS011;42463;52.214;21.238;2023-07-20T07:20:02;8.00;;;6.20;;
56581;SDS011;42463;52.214;21.238;2023-07-20T07:22:10;9.10;;;6.00;;
56581;SDS011;42463;52.214;21.238;2023-07-20T07:24:16;6.10;;;5.50;;
56581;SDS011;42463;52.214;21.238;2023-07-20T07:26:22;10.00;;;6.30;;
56581;SDS011;42463;52.214;21.238;2023-07-20T07:28:28;8.90;;;5.60;;
56581;SDS011;42463;52.214;21.238;2023-07-20T07:30:34;6.60;;;5.60;;
56581;SDS011;42463;52.214;21.238;2023-07-20T07:32:40;10.30;;;6.30;;
56581;SDS011;42463;52.214;21.238;2023-07-20T07:34:46;8.50;;;5.60;;
56581;SDS011;42463;52.214;21.238;2023-07-20T07:36:52;9.80;;;6.20;;
56581;SDS011;42463;52.214;21.238;2023-07-20T07:38:58;7.60;;;5.70;;
56581;SDS011;42463;52.214;21.238;2023-07-20T07:41:03;6.30;;;5.40;;
56581;SDS011;42463;52.214;21.238;2023-07-20T07:43:09;8.30;;;5.70;;
56581;SDS011;42463;52.214;21.238;2023-07-20T07:45:16;6.70;;;5.60;;
56581;SDS011;42463;52.214;21.238;2023-07-20T07:47:22;6.80;;;5.50;;
56581;SDS011;42463;52.214;21.238;2023-07-20T07:49:27;6.10;;;5.50;;
56581;SDS011;42463;52.214;21.238;2023-07-20T07:51:34;8.30;;;6.40;;
56581;SDS011;42463;52.214;21.238;2023-07-20T07:53:39;7.90;;;5.40;;
56581;SDS011;42463;52.214;21.238;2023-07-20T07:55:46;8.60;;;5.70;;
56581;SDS011;42463;52.214;21.238;2023-07-20T07:57:53;8.10;;;5.90;;
56581;SDS011;42463;52.214;21.238;2023-07-20T07:59:58;6.00;;;5.00;;
56581;SDS011;42463;52.214;21.238;2023-07-20T08:02:05;6.90;;;5.70;;
56581;SDS011;42463;52.214;21.238;2023-07-20T08:04:11;7.00;;;5.50;;
56581;SDS011;42463;52.214;21.238;2023-07-20T08:06:16;7.40;;;5.80;;
56581;SDS011;42463;52.214;21.238;2023-07-20T08:08:22;8.30;;;5.30;;
56581;SDS011;42463;52.214;21.238;2023-07-20T08:10:28;6.00;;;5.10;;
56581;SDS011;42463;52.214;21.238;2023-07-20T08:12:33;7.20;;;5.40;;
56581;SDS011;42463;52.214;21.238;2023-07-20T08:14:39;7.50;;;5.70;;
56581;SDS011;42463;52.214;21.238;2023-07-20T08:16:45;7.40;;;5.80;;
56581;SDS011;42463;52.214;21.238;2023-07-20T08:18:51;5.90;;;5.20;;
56581;SDS011;42463;52.214;21.238;2023-07-20T08:20:57;7.50;;;5.70;;
56581;SDS011;42463;52.214;21.238;2023-07-20T08:23:02;9.00;;;5.70;;
56581;SDS011;42463;52.214;21.238;2023-07-20T08:25:08;9.50;;;6.10;;
56581;SDS011;42463;52.214;21.238;2023-07-20T08:27:14;7.80;;;6.00;;
56581;SDS011;42463;52.214;21.238;2023-07-20T08:29:20;8.10;;;5.60;;
56581;SDS011;42463;52.214;21.238;2023-07-20T08:31:25;6.10;;;5.30;;
56581;SDS011;42463;52.214;21.238;2023-07-20T08:33:32;7.60;;;5.80;;
56581;SDS011;42463;52.214;21.238;2023-07-20T08:35:37;6.30;;;5.70;;
56581;SDS011;42463;52.214;21.238;2023-07-20T08:37:43;7.70;;;6.00;;
56581;SDS011;42463;52.214;21.238;2023-07-20T08:39:49;6.70;;;5.80;;
56581;SDS011;42463;52.214;21.238;2023-07-20T08:41:55;8.80;;;5.90;;
56581;SDS011;42463;52.214;21.238;2023-07-20T08:44:03;8.20;;;6.00;;
56581;SDS011;42463;52.214;21.238;2023-07-20T08:46:09;7.10;;;6.40;;
56581;SDS011;42463;52.214;21.238;2023-07-20T08:48:17;8.50;;;6.40;;
56581;SDS011;42463;52.214;21.238;2023-07-20T08:50:25;7.10;;;5.80;;
56581;SDS011;42463;52.214;21.238;2023-07-20T08:52:33;8.40;;;6.40;;
56581;SDS011;42463;52.214;21.238;2023-07-20T08:54:40;7.30;;;6.40;;
56581;SDS011;42463;52.214;21.238;2023-07-20T08:56:47;9.40;;;6.50;;
56581;SDS011;42463;52.214;21.238;2023-07-20T08:58:54;7.00;;;6.10;;
56581;SDS011;42463;52.214;21.238;2023-07-20T09:01:00;7.80;;;6.00;;
56581;SDS011;42463;52.214;21.238;2023-07-20T09:03:07;6.60;;;6.00;;
56581;SDS011;42463;52.214;21.238;2023-07-20T09:05:14;7.80;;;6.30;;
56581;SDS011;42463;52.214;21.238;2023-07-20T09:07:20;8.00;;;6.20;;
56581;SDS011;42463;52.214;21.238;2023-07-20T09:09:26;10.60;;;6.60;;
56581;SDS011;42463;52.214;21.238;2023-07-20T09:11:32;8.20;;;6.10;;
56581;SDS011;42463;52.214;21.238;2023-07-20T09:13:38;8.40;;;6.10;;
56581;SDS011;42463;52.214;21.238;2023-07-20T09:15:47;6.90;;;6.20;;
56581;SDS011;42463;52.214;21.238;2023-07-20T09:17:58;9.00;;;6.60;;
56581;SDS011;42463;52.214;21.238;2023-07-20T09:20:08;9.80;;;6.90;;
56581;SDS011;42463;52.214;21.238;2023-07-20T09:22:14;7.20;;;6.10;;
56581;SDS011;42463;52.214;21.238;2023-07-20T09:24:20;9.90;;;6.30;;
56581;SDS011;42463;52.214;21.238;2023-07-20T09:26:25;11.00;;;6.80;;
56581;SDS011;42463;52.214;21.238;2023-07-20T09:28:31;8.80;;;7.40;;
56581;SDS011;42463;52.214;21.238;2023-07-20T09:30:47;9.70;;;6.90;;
56581;SDS011;42463;52.214;21.238;2023-07-20T09:32:53;8.60;;;7.10;;
56581;SDS011;42463;52.214;21.238;2023-07-20T09:34:58;7.70;;;6.90;;
56581;SDS011;42463;52.214;21.238;2023-07-20T09:37:04;7.90;;;6.90;;
56581;SDS011;42463;52.214;21.238;2023-07-20T09:39:10;7.80;;;7.00;;
56581;SDS011;42463;52.214;21.238;2023-07-20T09:41:16;8.60;;;7.20;;
56581;SDS011;42463;52.214;21.238;2023-07-20T09:43:23;7.80;;;6.60;;
56581;SDS011;42463;52.214;21.238;2023-07-20T09:45:34;8.10;;;6.70;;
56581;SDS011;42463;52.214;21.238;2023-07-20T09:47:43;8.00;;;6.60;;
56581;SDS011;42463;52.214;21.238;2023-07-20T09:49:49;9.70;;;6.70;;
56581;SDS011;42463;52.214;21.238;2023-07-20T09:51:58;9.40;;;6.60;;
56581;SDS011;42463;52.214;21.238;2023-07-20T09:54:06;9.90;;;6.90;;
56581;SDS011;42463;52.214;21.238;2023-07-20T09:56:12;9.40;;;6.30;;
56581;SDS011;42463;52.214;21.238;2023-07-20T09:58:21;7.40;;;6.50;;
56581;SDS011;42463;52.214;21.238;2023-07-20T10:00:29;8.50;;;6.00;;
56581;SDS011;42463;52.214;21.238;2023-07-20T10:02:36;8.80;;;6.60;;
56581;SDS011;42463;52.214;21.238;2023-07-20T10:04:45;7.20;;;6.00;;
56581;SDS011;42463;52.214;21.238;2023-07-20T10:06:53;7.30;;;6.20;;
56581;SDS011;42463;52.214;21.238;2023-07-20T10:09:03;6.80;;;5.50;;
56581;SDS011;42463;52.214;21.238;2023-07-20T10:11:10;5.10;;;4.50;;
56581;SDS011;42463;52.214;21.238;2023-07-20T10:13:16;3.70;;;3.00;;
56581;SDS011;42463;52.214;21.238;2023-07-20T10:15:26;6.60;;;4.30;;
56581;SDS011;42463;52.214;21.238;2023-07-20T10:17:36;4.90;;;2.90;;
56581;SDS011;42463;52.214;21.238;2023-07-20T10:19:54;5.00;;;3.80;;
56581;SDS011;42463;52.214;21.238;2023-07-20T10:22:07;5.10;;;3.90;;
56581;SDS011;42463;52.214;21.238;2023-07-20T10:24:17;7.10;;;4.20;;
56581;SDS011;42463;52.214;21.238;2023-07-20T10:26:23;5.10;;;3.80;;
56581;SDS011;42463;52.214;21.238;2023-07-20T10:28:29;4.50;;;4.00;;
56581;SDS011;42463;52.214;21.238;2023-07-20T10:30:36;5.50;;;4.30;;
56581;SDS011;42463;52.214;21.238;2023-07-20T10:32:42;4.30;;;3.90;;
56581;SDS011;42463;52.214;21.238;2023-07-20T10:34:51;5.20;;;4.00;;
56581;SDS011;42463;52.214;21.238;2023-07-20T10:37:00;5.00;;;4.40;;
56581;SDS011;42463;52.214;21.238;2023-07-20T10:39:05;4.70;;;4.00;;
56581;SDS011;42463;52.214;21.238;2023-07-20T10:41:28;3.70;;;3.40;;
56581;SDS011;42463;52.214;21.238;2023-07-20T10:43:37;3.80;;;3.30;;
56581;SDS011;42463;52.214;21.238;2023-07-20T10:45:50;4.10;;;3.20;;
56581;SDS011;42463;52.214;21.238;2023-07-20T10:47:56;4.20;;;3.00;;
56581;SDS011;42463;52.214;21.238;2023-07-20T10:50:02;3.50;;;3.20;;
56581;SDS011;42463;52.214;21.238;2023-07-20T10:52:10;3.60;;;3.10;;
56581;SDS011;42463;52.214;21.238;2023-07-20T10:54:34;4.70;;;3.10;;
56581;SDS011;42463;52.214;21.238;2023-07-20T10:56:51;3.20;;;2.90;;
56581;SDS011;42463;52.214;21.238;2023-07-20T10:58:58;4.30;;;2.90;;
56581;SDS011;42463;52.214;21.238;2023-07-20T11:01:04;4.50;;;3.20;;
56581;SDS011;42463;52.214;21.238;2023-07-20T11:03:10;3.50;;;3.00;;
56581;SDS011;42463;52.214;21.238;2023-07-20T11:05:35;4.10;;;2.90;;
56581;SDS011;42463;52.214;21.238;2023-07-20T11:07:42;3.10;;;2.80;;
56581;SDS011;42463;52.214;21.238;2023-07-20T11:09:49;3.90;;;2.80;;
56581;SDS011;42463;52.214;21.238;2023-07-20T11:12:08;32.20;;;5.80;;
56581;SDS011;42463;52.214;21.238;2023-07-20T11:14:21;11.00;;;4.40;;
56581;SDS011;42463;52.214;21.238;2023-07-20T11:16:34;5.50;;;3.50;;
56581;SDS011;42463;52.214;21.238;2023-07-20T11:18:44;5.80;;;3.30;;
56581;SDS011;42463;52.214;21.238;2023-07-20T11:20:51;6.50;;;4.50;;
56581;SDS011;42463;52.214;21.238;2023-07-20T11:22:57;9.00;;;3.80;;
56581;SDS011;42463;52.214;21.238;2023-07-20T11:25:04;10.10;;;4.50;;
56581;SDS011;42463;52.214;21.238;2023-07-20T11:27:13;8.90;;;4.20;;
56581;SDS011;42463;52.214;21.238;2023-07-20T11:29:22;10.60;;;4.30;;
56581;SDS011;42463;52.214;21.238;2023-07-20T11:31:28;5.60;;;3.80;;
56581;SDS011;42463;52.214;21.238;2023-07-20T11:33:35;4.40;;;3.40;;
56581;SDS011;42463;52.214;21.238;2023-07-20T11:35:43;5.60;;;3.50;;
56581;SDS011;42463;52.214;21.238;2023-07-20T11:37:49;4.50;;;3.50;;
56581;SDS011;42463;52.214;21.238;2023-07-20T11:39:56;5.20;;;3.30;;
56581;SDS011;42463;52.214;21.238;2023-07-20T11:42:02;6.70;;;3.40;;
56581;SDS011;42463;52.214;21.238;2023-07-20T11:44:08;4.50;;;3.20;;
56581;SDS011;42463;52.214;21.238;2023-07-20T11:46:16;5.80;;;3.30;;
56581;SDS011;42463;52.214;21.238;2023-07-20T11:48:21;5.80;;;3.10;;
56581;SDS011;42463;52.214;21.238;2023-07-20T11:50:27;3.60;;;3.10;;
56581;SDS011;42463;52.214;21.238;2023-07-20T11:52:32;4.90;;;3.40;;
56581;SDS011;42463;52.214;21.238;2023-07-20T11:54:39;6.30;;;3.30;;
56581;SDS011;42463;52.214;21.238;2023-07-20T11:56:45;3.90;;;2.80;;
56581;SDS011;42463;52.214;21.238;2023-07-20T11:58:54;4.10;;;3.00;;
56581;SDS011;42463;52.214;21.238;2023-07-20T12:01:02;3.10;;;2.80;;
56581;SDS011;42463;52.214;21.238;2023-07-20T12:03:09;4.20;;;3.00;;
56581;SDS011;42463;52.214;21.238;2023-07-20T12:05:16;3.20;;;2.90;;
56581;SDS011;42463;52.214;21.238;2023-07-20T12:07:22;4.30;;;3.00;;
56581;SDS011;42463;52.214;21.238;2023-07-20T12:09:30;3.20;;;2.90;;
56581;SDS011;42463;52.214;21.238;2023-07-20T12:11:36;3.80;;;2.50;;
56581;SDS011;42463;52.214;21.238;2023-07-20T12:13:43;3.90;;;3.30;;
56581;SDS011;42463;52.214;21.238;2023-07-20T12:15:48;4.70;;;2.90;;
56581;SDS011;42463;52.214;21.238;2023-07-20T12:17:57;4.30;;;2.70;;
56581;SDS011;42463;52.214;21.238;2023-07-20T12:20:05;4.20;;;2.80;;
56581;SDS011;42463;52.214;21.238;2023-07-20T12:22:13;3.70;;;2.80;;
56581;SDS011;42463;52.214;21.238;2023-07-20T12:24:19;2.80;;;2.50;;
56581;SDS011;42463;52.214;21.238;2023-07-20T12:26:24;3.00;;;2.60;;
56581;SDS011;42463;52.214;21.238;2023-07-20T12:28:32;2.90;;;2.60;;
56581;SDS011;42463;52.214;21.238;2023-07-20T12:30:39;4.70;;;2.70;;
56581;SDS011;42463;52.214;21.238;2023-07-20T12:32:47;4.50;;;2.60;;
56581;SDS011;42463;52.214;21.238;2023-07-20T12:34:52;3.30;;;3.00;;